地図

経路データ

SID SEASON NUMBER BASIN SUBBASIN NAME ISO_TIME NATURE LAT LON WMO_WIND WMO_PRES WMO_AGENCY TRACK_TYPE DIST2LAND LANDFALL IFLAG USA_AGENCY USA_ATCF_ID USA_LAT USA_LON USA_RECORD USA_STATUS USA_WIND USA_PRES USA_SSHS USA_R34_NE USA_R34_SE USA_R34_SW USA_R34_NW USA_R50_NE USA_R50_SE USA_R50_SW USA_R50_NW USA_R64_NE USA_R64_SE USA_R64_SW USA_R64_NW USA_POCI USA_ROCI USA_RMW USA_EYE TOKYO_LAT TOKYO_LON TOKYO_GRADE TOKYO_WIND TOKYO_PRES TOKYO_R50_DIR TOKYO_R50_LONG TOKYO_R50_SHORT TOKYO_R30_DIR TOKYO_R30_LONG TOKYO_R30_SHORT TOKYO_LAND CMA_LAT CMA_LON CMA_CAT CMA_WIND CMA_PRES HKO_LAT HKO_LON HKO_CAT HKO_WIND HKO_PRES NEWDELHI_LAT NEWDELHI_LON NEWDELHI_GRADE NEWDELHI_WIND NEWDELHI_PRES NEWDELHI_CI NEWDELHI_DP NEWDELHI_POCI REUNION_LAT REUNION_LON REUNION_TYPE REUNION_WIND REUNION_PRES REUNION_TNUM REUNION_CI REUNION_RMW REUNION_R34_NE REUNION_R34_SE REUNION_R34_SW REUNION_R34_NW REUNION_R50_NE REUNION_R50_SE REUNION_R50_SW REUNION_R50_NW REUNION_R64_NE REUNION_R64_SE REUNION_R64_SW REUNION_R64_NW BOM_LAT BOM_LON BOM_TYPE BOM_WIND BOM_PRES BOM_TNUM BOM_CI BOM_RMW BOM_R34_NE BOM_R34_SE BOM_R34_SW BOM_R34_NW BOM_R50_NE BOM_R50_SE BOM_R50_SW BOM_R50_NW BOM_R64_NE BOM_R64_SE BOM_R64_SW BOM_R64_NW BOM_ROCI BOM_POCI BOM_EYE BOM_POS_METHOD BOM_PRES_METHOD NADI_LAT NADI_LON NADI_CAT NADI_WIND NADI_PRES WELLINGTON_LAT WELLINGTON_LON WELLINGTON_WIND WELLINGTON_PRES DS824_LAT DS824_LON DS824_STAGE DS824_WIND DS824_PRES TD9636_LAT TD9636_LON TD9636_STAGE TD9636_WIND TD9636_PRES TD9635_LAT TD9635_LON TD9635_WIND TD9635_PRES TD9635_ROCI NEUMANN_LAT NEUMANN_LON NEUMANN_CLASS NEUMANN_WIND NEUMANN_PRES MLC_LAT MLC_LON MLC_CLASS MLC_WIND MLC_PRES USA_GUST BOM_GUST BOM_GUST_PER REUNION_GUST REUNION_GUST_PER USA_SEAHGT USA_SEARAD_NE USA_SEARAD_SE USA_SEARAD_SW USA_SEARAD_NW STORM_SPEED STORM_DIR
1873021S17054 1873 3 SI MM NOT_NAMED 1873-01-21 06:00:00 NR -17.4000 53.7500 reunion main 413 403 _____O____O___ -1 -17.7000 54.1000 99 9.90000 -17.1000 53.4000 7 6 202
1873021S17054 1873 3 SI MM NOT_NAMED 1873-01-21 09:00:00 NR -17.6597 53.6386 main 408 394 _____P____P___ -1 -17.7459 54.0327 99 -17.5734 53.2445 7 6 203
1873021S17054 1873 3 SI MM NOT_NAMED 1873-01-21 12:00:00 NR -17.9054 53.5216 main 394 380 _____P____P___ -1 -17.7934 53.9622 99 -18.0175 53.0809 7 5 207
1873021S17054 1873 3 SI MM NOT_NAMED 1873-01-21 15:00:00 NR -18.1234 53.3937 main 380 367 _____P____P___ -1 -17.8441 53.8856 99 -18.4028 52.9018 7 5 213
1873021S17054 1873 3 SI MM NOT_NAMED 1873-01-21 18:00:00 NR -18.2997 53.2498 main 373 364 _____P____O___ -1 -17.8995 53.7996 99 -18.7000 52.7000 7 4 224
1873021S17054 1873 3 SI MM NOT_NAMED 1873-01-21 21:00:00 NR -18.4266 53.0869 main 370 368 _____P____P___ -1 -17.9612 53.7012 99 -18.8920 52.4727 7 4 235
1873021S17054 1873 3 SI MM NOT_NAMED 1873-01-22 00:00:00 NR -18.5205 52.9108 main 370 351 _____P____P___ -1 -18.0308 53.5872 99 -19.0101 52.2344 7 4 242
1873021S17054 1873 3 SI MM NOT_NAMED 1873-01-22 03:00:00 NR -18.6041 52.7292 main 351 340 _____P____P___ -1 -18.1099 53.4545 99 -19.0982 52.0040 7 4 242
1873021S17054 1873 3 SI MM NOT_NAMED 1873-01-22 06:00:00 NR -18.7000 52.5500 reunion main 342 323 _____O____O___ -1 -18.2000 53.3000 99 9.90000 -19.2000 51.8000 7 4 234
1873021S17054 1873 3 SI MM NOT_NAMED 1873-01-22 09:00:00 NR -18.8423 52.3860 main 323 308 _____P____P___ -1 -18.3022 53.1218 99 -19.3823 51.6502 7 4 226
1873021S17054 1873 3 SI MM NOT_NAMED 1873-01-22 12:00:00 NR -19.0005 52.2255 main 308 301 _____P____P___ -1 -18.4162 52.9237 99 -19.5848 51.5273 7 4 223
1873021S17054 1873 3 SI MM NOT_NAMED 1873-01-22 15:00:00 NR -19.1679 52.0632 main 305 290 _____P____P___ -1 -18.5409 52.7107 99 -19.7949 51.4158 7 5 223
1873021S17054 1873 3 SI MM NOT_NAMED 1873-01-22 18:00:00 NR -19.3379 51.8939 main 290 277 _____P____O___ -1 -18.6758 52.4878 99 -20.0000 51.3000 7 5 225
1873021S17054 1873 3 SI MM NOT_NAMED 1873-01-22 21:00:00 NR -19.5031 51.7046 main 277 260 _____P____P___ -1 -18.8198 52.2602 99 -20.1863 51.1491 7 5 227
1873021S17054 1873 3 SI MM NOT_NAMED 1873-01-23 00:00:00 NR -19.6687 51.5127 main 263 247 _____P____P___ -1 -18.9724 52.0330 99 -20.3650 50.9925 7 5 227
1873021S17054 1873 3 SI MM NOT_NAMED 1873-01-23 03:00:00 NR -19.8345 51.3254 main 247 242 _____P____P___ -1 -19.1327 51.8112 99 -20.5363 50.8397 7 5 226
1873021S17054 1873 3 SI MM NOT_NAMED 1873-01-23 06:00:00 NR -20.0000 51.1500 reunion main 246 230 _____O____O___ -1 -19.3000 51.6000 99 9.90000 -20.7000 50.7000 7 5 223
1873021S17054 1873 3 SI MM NOT_NAMED 1873-01-23 09:00:00 NR -20.1688 50.9935 main 230 220 _____P____P___ -1 -19.4764 51.4056 99 -20.8612 50.5814 7 4 220
1873021S17054 1873 3 SI MM NOT_NAMED 1873-01-23 12:00:00 NR -20.3386 50.8477 main 211 205 _____P____P___ -1 -19.6623 51.2181 99 -21.0149 50.4774 7 4 218
1873021S17054 1873 3 SI MM NOT_NAMED 1873-01-23 15:00:00 NR -20.5079 50.7115 main 205 199 _____P____P___ -1 -19.8545 51.0385 99 -21.1612 50.3846 7 4 216
1873021S17054 1873 3 SI MM NOT_NAMED 1873-01-23 18:00:00 NR -20.6749 50.5840 main 203 193 _____P____O___ -1 -20.0498 50.8680 99 -21.3000 50.3000 7 4 216
1873021S17054 1873 3 SI MM NOT_NAMED 1873-01-23 21:00:00 NR -20.8306 50.4607 main 198 189 _____P____P___ -1 -20.2452 50.7077 99 -21.4159 50.2136 7 4 215
1873021S17054 1873 3 SI MM NOT_NAMED 1873-01-24 00:00:00 NR -20.9825 50.3468 main 189 183 _____P____P___ -1 -20.4374 50.5588 99 -21.5275 50.1348 7 4 213
1873021S17054 1873 3 SI MM NOT_NAMED 1873-01-24 03:00:00 NR -21.1369 50.2431 main 183 183 _____P____P___ -1 -20.6234 50.4225 99 -21.6503 50.0636 7 4 210
1873021S17054 1873 3 SI MM NOT_NAMED 1873-01-24 06:00:00 NR -21.3000 50.1500 reunion main 189 179 _____O____O___ -1 -20.8000 50.3000 99 9.90000 -21.8000 50.0000 7 4 206
1873021S17054 1873 3 SI MM NOT_NAMED 1873-01-24 09:00:00 NR -21.4714 50.0654 main 184 174 _____P____P___ -1 -20.9425 50.1881 99 -22.0003 49.9428 7 4 203
1873021S17054 1873 3 SI MM NOT_NAMED 1873-01-24 12:00:00 NR -21.6512 49.9916 main 178 171 _____P____P___ -1 -21.0750 50.0906 99 -22.2275 49.8925 7 4 200
1873021S17054 1873 3 SI MM NOT_NAMED 1873-01-24 15:00:00 NR -21.8338 49.9258 main 171 171 _____P____P___ -1 -21.2018 50.0057 99 -22.4659 49.8459 7 4 198
1873021S17054 1873 3 SI MM NOT_NAMED 1873-01-24 18:00:00 NR -22.0136 49.8657 main 176 168 _____P____O___ -1 -21.3271 49.9313 99 -22.7000 49.8000 7 4 199
1873021S17054 1873 3 SI MM NOT_NAMED 1873-01-24 21:00:00 NR -22.1691 49.8037 main 170 164 _____P____P___ -1 -21.4553 49.8656 99 -22.8828 49.7419 7 3 200
1873021S17054 1873 3 SI MM NOT_NAMED 1873-01-25 00:00:00 NR -22.3266 49.7457 main 164 164 _____P____P___ -1 -21.5907 49.8064 99 -23.0625 49.6850 7 3 198
1873021S17054 1873 3 SI MM NOT_NAMED 1873-01-25 03:00:00 NR -22.4992 49.6938 main 173 173 _____P____P___ -1 -21.7375 49.7519 99 -23.2610 49.6357 7 4 193
1873021S17054 1873 3 SI MM NOT_NAMED 1873-01-25 06:00:00 NR -22.7000 49.6500 reunion main 182 172 _____O____O___ -1 -21.9000 49.7000 99 9.90000 -23.5000 49.6000 7 5 191
1873021S17054 1873 3 SI MM NOT_NAMED 1873-01-25 09:00:00 NR -22.9431 49.5996 main 179 179 _____P____P___ -1 -22.0753 49.6257 99 -23.8109 49.5735 7 5 190
1873021S17054 1873 3 SI MM NOT_NAMED 1873-01-25 12:00:00 NR -23.2128 49.5582 main 187 179 _____P____P___ -1 -22.2632 49.5538 99 -24.1625 49.5627 7 6 187
1873021S17054 1873 3 SI MM NOT_NAMED 1873-01-25 15:00:00 NR -23.4987 49.5285 main 183 183 _____P____P___ -1 -22.4645 49.4865 99 -24.5328 49.5705 7 6 184
1873021S17054 1873 3 SI MM NOT_NAMED 1873-01-25 18:00:00 NR -23.7901 49.5131 main 188 188 _____P____O___ -1 -22.6801 49.4262 99 -24.9000 49.6000 7 6 0
1873021S17054 1873 3 SI MM NOT_NAMED 1873-01-25 21:00:00 NR -24.0775 49.5121 main 199 199 _____P____P___ -1 -22.9106 49.3750 99 -25.2444 49.6492 7 6 178
1873021S17054 1873 3 SI MM NOT_NAMED 1873-01-26 00:00:00 NR -24.3685 49.5276 main 207 207 _____P____P___ -1 -23.1569 49.3354 99 -25.5800 49.7198 7 6 176
1873021S17054 1873 3 SI MM NOT_NAMED 1873-01-26 03:00:00 NR -24.6602 49.5576 main 226 226 _____P____P___ -1 -23.4198 49.3096 99 -25.9006 49.8055 7 6 173
1873021S17054 1873 3 SI MM NOT_NAMED 1873-01-26 06:00:00 NR -24.9500 49.6000 reunion main 235 235 _____O____O___ -1 -23.7000 49.3000 99 9.90000 -26.2000 49.9000 7 6 172
1873021S17054 1873 3 SI MM NOT_NAMED 1873-01-26 09:00:00 NR -25.2451 49.6439 main 244 244 _____P____P___ -1 -24.0147 49.3029 99 -26.4756 49.9849 7 6 171
1873021S17054 1873 3 SI MM NOT_NAMED 1873-01-26 12:00:00 NR -25.5403 49.6997 main 266 266 _____P____P___ -1 -24.3508 49.3216 99 -26.7299 50.0778 7 6 169
1873021S17054 1873 3 SI MM NOT_NAMED 1873-01-26 15:00:00 NR -25.8351 49.7684 main 285 285 _____P____P___ -1 -24.7008 49.3549 99 -26.9693 50.1818 7 6 167
1873021S17054 1873 3 SI MM NOT_NAMED 1873-01-26 18:00:00 NR -26.1287 49.8509 main 306 306 _____P____O___ -1 -25.0573 49.4018 99 -27.2000 50.3000 7 6 164
1873021S17054 1873 3 SI MM NOT_NAMED 1873-01-26 21:00:00 NR -26.4201 49.9476 main 320 320 _____P____P___ -1 -25.4130 49.4609 99 -27.4273 50.4343 7 5 165
1873021S17054 1873 3 SI MM NOT_NAMED 1873-01-27 00:00:00 NR -26.5713 49.9815 main 340 340 _____P____P___ -1 -25.7602 49.5312 99 -27.6527 50.5819 7 3 173
1873021S17054 1873 3 SI MM NOT_NAMED 1873-01-27 03:00:00 NR -26.6867 49.9870 main 346 338 _____P____P___ -1 -26.0917 49.6113 99 -27.8767 50.7385 7 2 192
1873021S17054 1873 3 SI MM NOT_NAMED 1873-01-27 06:00:00 NR -26.7400 49.9400 reunion main 338 330 _____O____O___ -1 -26.4000 49.7000 99 9.90000 -28.1000 50.9000 7 2 273
1873021S17054 1873 3 SI MM NOT_NAMED 1873-01-27 09:00:00 NR -26.6762 49.7909 main 330 330 _____P________ -1 -26.6762 49.7909 99 7 2 192
1873021S17054 1873 3 SI MM NOT_NAMED 1873-01-27 12:00:00 NR -26.9335 49.8927 main 351 351 _____P________ -1 -26.9335 49.8927 99 7 5 159
1873021S17054 1873 3 SI MM NOT_NAMED 1873-01-27 15:00:00 NR -27.1721 50.0029 main 379 379 _____P________ -1 -27.1721 50.0029 99 7 5 156
1873021S17054 1873 3 SI MM NOT_NAMED 1873-01-27 18:00:00 NR -27.3925 50.1194 main 401 401 _____P________ -1 -27.3925 50.1194 99 5 154
1873021S17054 1873 3 SI MM NOT_NAMED 1873-01-27 21:00:00 NR -27.5952 50.2397 main 423 423 _____P________ -1 -27.5952 50.2397 99 4 151
1873021S17054 1873 3 SI MM NOT_NAMED 1873-01-28 00:00:00 NR -27.7803 50.3614 main 453 453 _____P________ -1 -27.7803 50.3614 99 4 149
1873021S17054 1873 3 SI MM NOT_NAMED 1873-01-28 03:00:00 NR -27.9485 50.4824 main 467 467 _____P________ -1 -27.9485 50.4824 99 4 147
1873021S17054 1873 3 SI MM NOT_NAMED 1873-01-28 06:00:00 NR -28.1000 50.6000 reunion main 489 489 _____O________ -1 -28.1000 50.6000 99 9.90000 4 145
1873021S17054 1873 3 SI MM NOT_NAMED 1873-01-28 09:00:00 NR -28.2355 50.7125 main 504 504 _____P________ -1 -28.2355 50.7125 99 3 143
1873021S17054 1873 3 SI MM NOT_NAMED 1873-01-28 12:00:00 NR -28.3569 50.8200 main 527 527 _____P________ -1 -28.3569 50.8200 99 3 141
1873021S17054 1873 3 SI MM NOT_NAMED 1873-01-28 15:00:00 NR -28.4661 50.9232 main 541 541 _____P________ -1 -28.4661 50.9232 99 3 139
1873021S17054 1873 3 SI MM NOT_NAMED 1873-01-28 18:00:00 NR -28.5651 51.0228 main 556 556 _____P________ -1 -28.5651 51.0228 99 3 138
1873021S17054 1873 3 SI MM NOT_NAMED 1873-01-28 21:00:00 NR -28.6559 51.1195 main 571 571 _____P________ -1 -28.6559 51.1195 99 2 136
1873021S17054 1873 3 SI MM NOT_NAMED 1873-01-29 00:00:00 NR -28.7407 51.2141 main 578 578 _____P________ -1 -28.7407 51.2141 99 2 136
1873021S17054 1873 3 SI MM NOT_NAMED 1873-01-29 03:00:00 NR -28.8214 51.3074 main 593 593 _____P________ -1 -28.8214 51.3074 99 2 134
1873021S17054 1873 3 SI MM NOT_NAMED 1873-01-29 06:00:00 NR -28.9000 51.4000 reunion main 607 _____O________ -1 -28.9000 51.4000 99 9.90000 2 135

IBTrACS Databaseについて

本データベースは、米国NOAAが公開する1842年以降の世界の熱帯低気圧のベストトラックデータアーカイブInternational Best Track Archive for Climate Stewardship (IBTrACS)を、ウェブで閲覧しやすい形式に変換したものです。

最終更新日:2021-10-21